sensor_id;sensor_type;location;lat;lon;timestamp;pressure;altitude;pressure_sealevel;temperature;humidity
46690;BME280;32423;45.398;10.874;2024-02-21T00:02:21;101730.25;;;12.21;59.31
46690;BME280;32423;45.398;10.874;2024-02-21T00:05:13;101731.25;;;12.25;59.20
46690;BME280;32423;45.398;10.874;2024-02-21T00:08:05;101729.56;;;12.29;58.93
46690;BME280;32423;45.398;10.874;2024-02-21T00:10:56;101731.38;;;12.33;58.55
46690;BME280;32423;45.398;10.874;2024-02-21T00:13:48;101737.22;;;12.27;58.27
46690;BME280;32423;45.398;10.874;2024-02-21T00:16:40;101733.47;;;12.23;58.37
46690;BME280;32423;45.398;10.874;2024-02-21T00:19:32;101737.94;;;12.19;58.10
46690;BME280;32423;45.398;10.874;2024-02-21T00:22:27;101732.75;;;12.17;58.00
46690;BME280;32423;45.398;10.874;2024-02-21T00:25:20;101734.06;;;12.20;57.61
46690;BME280;32423;45.398;10.874;2024-02-21T00:28:12;101736.50;;;12.21;57.49
46690;BME280;32423;45.398;10.874;2024-02-21T00:31:04;101731.53;;;12.10;57.74
46690;BME280;32423;45.398;10.874;2024-02-21T00:33:56;101730.31;;;12.02;58.25
46690;BME280;32423;45.398;10.874;2024-02-21T00:36:48;101720.72;;;12.05;58.41
46690;BME280;32423;45.398;10.874;2024-02-21T00:39:40;101728.00;;;12.09;58.33
46690;BME280;32423;45.398;10.874;2024-02-21T00:42:32;101724.97;;;12.11;58.64
46690;BME280;32423;45.398;10.874;2024-02-21T00:45:23;101718.50;;;12.07;58.77
46690;BME280;32423;45.398;10.874;2024-02-21T00:48:15;101716.97;;;12.00;58.87
46690;BME280;32423;45.398;10.874;2024-02-21T00:51:07;101710.00;;;11.94;59.22
46690;BME280;32423;45.398;10.874;2024-02-21T00:53:59;101702.50;;;11.86;59.61
46690;BME280;32423;45.398;10.874;2024-02-21T00:56:51;101707.44;;;11.84;59.84
46690;BME280;32423;45.398;10.874;2024-02-21T00:59:41;101712.03;;;11.70;60.35
46690;BME280;32423;45.398;10.874;2024-02-21T01:02:32;101708.16;;;11.76;60.91
46690;BME280;32423;45.398;10.874;2024-02-21T01:05:24;101705.34;;;11.81;60.68
46690;BME280;32423;45.398;10.874;2024-02-21T01:08:16;101712.91;;;11.84;60.07
46690;BME280;32423;45.398;10.874;2024-02-21T01:11:08;101707.25;;;11.81;60.00
46690;BME280;32423;45.398;10.874;2024-02-21T01:14:00;101707.09;;;11.72;60.15
46690;BME280;32423;45.398;10.874;2024-02-21T01:16:52;101711.22;;;11.70;60.10
46690;BME280;32423;45.398;10.874;2024-02-21T01:19:43;101703.66;;;11.67;60.92
46690;BME280;32423;45.398;10.874;2024-02-21T01:22:35;101705.44;;;11.57;61.16
46690;BME280;32423;45.398;10.874;2024-02-21T01:25:27;101700.91;;;11.67;61.42
46690;BME280;32423;45.398;10.874;2024-02-21T01:28:19;101698.56;;;11.60;60.71
46690;BME280;32423;45.398;10.874;2024-02-21T01:31:09;101706.00;;;11.54;61.66
46690;BME280;32423;45.398;10.874;2024-02-21T01:34:05;101695.75;;;11.65;61.56
46690;BME280;32423;45.398;10.874;2024-02-21T01:36:56;101706.66;;;11.65;62.04
46690;BME280;32423;45.398;10.874;2024-02-21T01:39:48;101704.53;;;11.62;60.86
46690;BME280;32423;45.398;10.874;2024-02-21T01:42:40;101706.63;;;11.51;60.64
46690;BME280;32423;45.398;10.874;2024-02-21T01:45:35;101708.63;;;11.27;60.56
46690;BME280;32423;45.398;10.874;2024-02-21T01:48:27;101701.13;;;11.19;61.67
46690;BME280;32423;45.398;10.874;2024-02-21T01:51:16;101696.94;;;11.08;62.06
46690;BME280;32423;45.398;10.874;2024-02-21T01:54:11;101701.06;;;11.05;61.35
46690;BME280;32423;45.398;10.874;2024-02-21T01:57:03;101699.34;;;11.09;61.74
46690;BME280;32423;45.398;10.874;2024-02-21T01:59:55;101703.09;;;11.13;61.56
46690;BME280;32423;45.398;10.874;2024-02-21T02:02:47;101693.31;;;11.12;60.71
46690;BME280;32423;45.398;10.874;2024-02-21T02:05:39;101699.81;;;11.17;60.93
46690;BME280;32423;45.398;10.874;2024-02-21T02:08:31;101697.00;;;11.22;59.70
46690;BME280;32423;45.398;10.874;2024-02-21T02:11:23;101691.88;;;11.01;59.39
46690;BME280;32423;45.398;10.874;2024-02-21T02:14:15;101690.09;;;11.10;59.55
46690;BME280;32423;45.398;10.874;2024-02-21T02:17:07;101682.44;;;11.12;59.62
46690;BME280;32423;45.398;10.874;2024-02-21T02:19:59;101692.06;;;11.05;59.41
46690;BME280;32423;45.398;10.874;2024-02-21T02:22:51;101690.38;;;10.90;60.18
46690;BME280;32423;45.398;10.874;2024-02-21T02:25:41;101694.81;;;10.86;60.46
46690;BME280;32423;45.398;10.874;2024-02-21T02:28:33;101693.84;;;10.96;60.53
46690;BME280;32423;45.398;10.874;2024-02-21T02:31:24;101686.63;;;11.05;60.29
46690;BME280;32423;45.398;10.874;2024-02-21T02:34:21;101671.13;;;11.05;59.53
46690;BME280;32423;45.398;10.874;2024-02-21T02:37:11;101669.78;;;11.03;59.07
46690;BME280;32423;45.398;10.874;2024-02-21T02:40:03;101673.25;;;10.90;59.84
46690;BME280;32423;45.398;10.874;2024-02-21T02:42:58;101667.13;;;10.98;59.47
46690;BME280;32423;45.398;10.874;2024-02-21T02:45:53;101661.69;;;10.98;58.44
46690;BME280;32423;45.398;10.874;2024-02-21T02:48:45;101659.94;;;10.88;58.73
46690;BME280;32423;45.398;10.874;2024-02-21T02:51:37;101666.84;;;10.99;58.74
46690;BME280;32423;45.398;10.874;2024-02-21T02:54:32;101669.28;;;11.01;58.22
46690;BME280;32423;45.398;10.874;2024-02-21T02:57:24;101665.97;;;10.85;58.24
46690;BME280;32423;45.398;10.874;2024-02-21T03:00:13;101655.66;;;10.82;58.80
46690;BME280;32423;45.398;10.874;2024-02-21T03:03:05;101669.19;;;10.87;59.46
46690;BME280;32423;45.398;10.874;2024-02-21T03:05:57;101657.00;;;10.85;58.90
46690;BME280;32423;45.398;10.874;2024-02-21T03:08:49;101662.00;;;10.96;57.43
46690;BME280;32423;45.398;10.874;2024-02-21T03:11:41;101668.47;;;11.00;56.77
46690;BME280;32423;45.398;10.874;2024-02-21T03:14:33;101661.31;;;11.04;55.75
46690;BME280;32423;45.398;10.874;2024-02-21T03:17:25;101660.50;;;11.04;54.61
46690;BME280;32423;45.398;10.874;2024-02-21T03:20:17;101668.47;;;11.00;54.74
46690;BME280;32423;45.398;10.874;2024-02-21T03:23:09;101677.50;;;10.77;55.33
46690;BME280;32423;45.398;10.874;2024-02-21T03:25:58;101670.81;;;10.88;54.96
46690;BME280;32423;45.398;10.874;2024-02-21T03:28:50;101686.91;;;10.85;55.24
46690;BME280;32423;45.398;10.874;2024-02-21T03:31:39;101680.53;;;10.94;54.83
46690;BME280;32423;45.398;10.874;2024-02-21T03:34:31;101675.69;;;10.91;54.68
46690;BME280;32423;45.398;10.874;2024-02-21T03:37:23;101684.13;;;10.90;55.21
46690;BME280;32423;45.398;10.874;2024-02-21T03:40:15;101685.72;;;10.72;55.25
46690;BME280;32423;45.398;10.874;2024-02-21T03:43:07;101685.72;;;10.72;55.30
46690;BME280;32423;45.398;10.874;2024-02-21T03:45:59;101687.34;;;10.73;55.62
46690;BME280;32423;45.398;10.874;2024-02-21T03:48:49;101687.94;;;10.70;55.16
46690;BME280;32423;45.398;10.874;2024-02-21T03:51:41;101682.44;;;10.75;55.78
46690;BME280;32423;45.398;10.874;2024-02-21T03:54:33;101683.53;;;10.74;54.97
46690;BME280;32423;45.398;10.874;2024-02-21T03:57:25;101682.78;;;10.87;53.29
46690;BME280;32423;45.398;10.874;2024-02-21T04:00:16;101672.50;;;10.84;52.79
46690;BME280;32423;45.398;10.874;2024-02-21T04:03:08;101677.56;;;10.72;53.14
46690;BME280;32423;45.398;10.874;2024-02-21T04:06:01;101675.97;;;10.71;52.94
46690;BME280;32423;45.398;10.874;2024-02-21T04:08:53;101680.41;;;10.62;52.96
46690;BME280;32423;45.398;10.874;2024-02-21T04:11:45;101679.63;;;10.61;52.93
46690;BME280;32423;45.398;10.874;2024-02-21T04:14:37;101675.16;;;10.70;51.45
46690;BME280;32423;45.398;10.874;2024-02-21T04:17:29;101680.88;;;10.69;51.37
46690;BME280;32423;45.398;10.874;2024-02-21T04:20:21;101685.22;;;10.70;51.32
46690;BME280;32423;45.398;10.874;2024-02-21T04:23:13;101683.59;;;10.69;50.59
46690;BME280;32423;45.398;10.874;2024-02-21T04:26:05;101676.47;;;10.73;50.19
46690;BME280;32423;45.398;10.874;2024-02-21T04:28:57;101676.19;;;10.75;49.65
46690;BME280;32423;45.398;10.874;2024-02-21T04:31:49;101678.22;;;10.83;49.05
46690;BME280;32423;45.398;10.874;2024-02-21T04:34:41;101678.47;;;10.86;48.64
46690;BME280;32423;45.398;10.874;2024-02-21T04:37:33;101673.91;;;10.82;48.61
46690;BME280;32423;45.398;10.874;2024-02-21T04:40:30;101677.66;;;10.86;48.25
46690;BME280;32423;45.398;10.874;2024-02-21T04:43:22;101679.03;;;10.64;48.93
46690;BME280;32423;45.398;10.874;2024-02-21T04:46:14;101678.75;;;10.66;48.67
46690;BME280;32423;45.398;10.874;2024-02-21T04:49:06;101675.78;;;10.62;49.38
46690;BME280;32423;45.398;10.874;2024-02-21T04:55:24;101680.75;;;10.79;47.64
46690;BME280;32423;45.398;10.874;2024-02-21T04:58:16;101687.28;;;10.78;48.00
46690;BME280;32423;45.398;10.874;2024-02-21T05:01:11;101687.00;;;10.80;47.85
46690;BME280;32423;45.398;10.874;2024-02-21T05:03:58;101687.34;;;10.73;47.77
46690;BME280;32423;45.398;10.874;2024-02-21T05:06:50;101699.09;;;10.68;48.13
46690;BME280;32423;45.398;10.874;2024-02-21T05:09:42;101700.94;;;10.73;47.96
46690;BME280;32423;45.398;10.874;2024-02-21T05:12:34;101696.97;;;10.65;47.95
46690;BME280;32423;45.398;10.874;2024-02-21T05:15:26;101700.72;;;10.69;47.75
46690;BME280;32423;45.398;10.874;2024-02-21T05:18:17;101694.47;;;10.69;47.38
46690;BME280;32423;45.398;10.874;2024-02-21T05:21:09;101692.03;;;10.67;47.05
46690;BME280;32423;45.398;10.874;2024-02-21T05:24:01;101669.78;;;10.65;47.00
46690;BME280;32423;45.398;10.874;2024-02-21T05:26:53;101671.69;;;10.65;46.62
46690;BME280;32423;45.398;10.874;2024-02-21T05:29:45;101676.16;;;10.56;46.86
46690;BME280;32423;45.398;10.874;2024-02-21T05:32:37;101675.28;;;10.60;46.50
46690;BME280;32423;45.398;10.874;2024-02-21T05:35:29;101681.06;;;10.54;46.19
46690;BME280;32423;45.398;10.874;2024-02-21T05:38:21;101683.19;;;10.57;46.31
46690;BME280;32423;45.398;10.874;2024-02-21T05:41:13;101679.09;;;10.59;45.56
46690;BME280;32423;45.398;10.874;2024-02-21T05:44:05;101679.69;;;10.56;45.65
46690;BME280;32423;45.398;10.874;2024-02-21T05:46:57;101684.69;;;10.68;46.44
46690;BME280;32423;45.398;10.874;2024-02-21T05:49:49;101681.69;;;10.69;46.18
46690;BME280;32423;45.398;10.874;2024-02-21T05:52:43;101669.31;;;10.77;46.12
46690;BME280;32423;45.398;10.874;2024-02-21T05:55:35;101679.03;;;10.83;46.34
46690;BME280;32423;45.398;10.874;2024-02-21T05:58:26;101680.88;;;10.69;47.44
46690;BME280;32423;45.398;10.874;2024-02-21T06:01:18;101677.19;;;10.60;48.22
46690;BME280;32423;45.398;10.874;2024-02-21T06:04:10;101678.88;;;10.56;49.20
46690;BME280;32423;45.398;10.874;2024-02-21T06:07:02;101676.59;;;10.63;46.45
46690;BME280;32423;45.398;10.874;2024-02-21T06:09:55;101683.13;;;10.62;45.78
46690;BME280;32423;45.398;10.874;2024-02-21T06:12:47;101677.13;;;10.65;45.95
46690;BME280;32423;45.398;10.874;2024-02-21T06:15:38;101679.19;;;10.73;45.69
46690;BME280;32423;45.398;10.874;2024-02-21T06:18:31;101685.78;;;10.67;46.26
46690;BME280;32423;45.398;10.874;2024-02-21T06:21:28;101691.59;;;10.37;49.49
46690;BME280;32423;45.398;10.874;2024-02-21T06:24:20;101699.06;;;10.26;49.69
46690;BME280;32423;45.398;10.874;2024-02-21T06:27:12;101701.44;;;10.33;49.37
46690;BME280;32423;45.398;10.874;2024-02-21T06:30:04;101708.16;;;10.40;50.59
46690;BME280;32423;45.398;10.874;2024-02-21T06:32:56;101708.78;;;10.03;50.74
46690;BME280;32423;45.398;10.874;2024-02-21T06:35:48;101705.00;;;9.70;53.25
46690;BME280;32423;45.398;10.874;2024-02-21T06:38:40;101718.47;;;9.52;52.86
46690;BME280;32423;45.398;10.874;2024-02-21T06:41:30;101706.91;;;9.36;53.57
46690;BME280;32423;45.398;10.874;2024-02-21T06:44:19;101715.50;;;9.14;54.76
46690;BME280;32423;45.398;10.874;2024-02-21T06:47:11;101718.66;;;9.26;56.32
46690;BME280;32423;45.398;10.874;2024-02-21T06:53:24;101728.50;;;8.63;59.28
46690;BME280;32423;45.398;10.874;2024-02-21T06:56:16;101727.97;;;8.56;60.44
46690;BME280;32423;45.398;10.874;2024-02-21T06:59:08;101724.44;;;8.55;61.13
46690;BME280;32423;45.398;10.874;2024-02-21T07:02:00;101729.03;;;8.65;61.60
46690;BME280;32423;45.398;10.874;2024-02-21T07:04:53;101734.63;;;8.84;62.32
46690;BME280;32423;45.398;10.874;2024-02-21T07:07:45;101734.56;;;8.99;61.88
46690;BME280;32423;45.398;10.874;2024-02-21T07:28:13;101739.06;;;9.92;59.13
46690;BME280;32423;45.398;10.874;2024-02-21T07:31:05;101743.41;;;10.21;58.13
46690;BME280;32423;45.398;10.874;2024-02-21T07:33:57;101743.03;;;10.57;57.15
46690;BME280;32423;45.398;10.874;2024-02-21T07:36:49;101751.00;;;10.72;56.87
46690;BME280;32423;45.398;10.874;2024-02-21T07:39:41;101747.72;;;10.75;56.27
46690;BME280;32423;45.398;10.874;2024-02-21T07:42:33;101755.91;;;10.94;56.07
46690;BME280;32423;45.398;10.874;2024-02-21T07:45:25;101762.50;;;11.11;54.64
46690;BME280;32423;45.398;10.874;2024-02-21T07:48:17;101771.25;;;11.27;53.81
46690;BME280;32423;45.398;10.874;2024-02-21T07:51:09;101771.13;;;11.37;55.47
46690;BME280;32423;45.398;10.874;2024-02-21T07:54:00;101772.19;;;11.55;54.76
46690;BME280;32423;45.398;10.874;2024-02-21T07:56:52;101765.97;;;11.73;54.03
46690;BME280;32423;45.398;10.874;2024-02-21T07:59:44;101767.75;;;11.96;53.13
46690;BME280;32423;45.398;10.874;2024-02-21T08:02:36;101776.47;;;12.12;52.48
46690;BME280;32423;45.398;10.874;2024-02-21T08:05:28;101774.19;;;12.33;51.64
46690;BME280;32423;45.398;10.874;2024-02-21T08:08:19;101776.56;;;12.53;51.15
46690;BME280;32423;45.398;10.874;2024-02-21T08:11:11;101783.72;;;12.76;50.40
46690;BME280;32423;45.398;10.874;2024-02-21T08:14:02;101786.25;;;13.00;49.49
46690;BME280;32423;45.398;10.874;2024-02-21T08:16:54;101791.09;;;13.17;49.45
46690;BME280;32423;45.398;10.874;2024-02-21T08:19:46;101798.53;;;13.39;48.50
46690;BME280;32423;45.398;10.874;2024-02-21T08:22:38;101794.78;;;13.48;46.71
46690;BME280;32423;45.398;10.874;2024-02-21T08:25:25;101791.03;;;13.44;46.66
46690;BME280;32423;45.398;10.874;2024-02-21T08:28:14;101792.81;;;13.85;46.22
46690;BME280;32423;45.398;10.874;2024-02-21T08:31:06;101789.50;;;14.19;45.73
46690;BME280;32423;45.398;10.874;2024-02-21T08:33:53;101789.81;;;14.39;45.02
46690;BME280;32423;45.398;10.874;2024-02-21T08:36:45;101776.75;;;14.36;43.77
46690;BME280;32423;45.398;10.874;2024-02-21T08:39:37;101768.81;;;14.57;43.95
46690;BME280;32423;45.398;10.874;2024-02-21T08:42:30;101770.91;;;14.69;42.97
46690;BME280;32423;45.398;10.874;2024-02-21T08:45:22;101776.34;;;14.99;42.37
46690;BME280;32423;45.398;10.874;2024-02-21T08:48:14;101775.06;;;15.14;41.86
46690;BME280;32423;45.398;10.874;2024-02-21T08:51:06;101770.75;;;15.30;40.60
46690;BME280;32423;45.398;10.874;2024-02-21T08:53:58;101771.56;;;15.39;41.25
46690;BME280;32423;45.398;10.874;2024-02-21T08:56:50;101773.97;;;15.41;40.50
46690;BME280;32423;45.398;10.874;2024-02-21T08:59:42;101769.31;;;15.41;39.99
46690;BME280;32423;45.398;10.874;2024-02-21T09:02:34;101771.44;;;15.62;39.03
46690;BME280;32423;45.398;10.874;2024-02-21T09:05:26;101761.41;;;15.83;39.45
46690;BME280;32423;45.398;10.874;2024-02-21T09:08:18;101760.28;;;15.84;39.19
46690;BME280;32423;45.398;10.874;2024-02-21T09:11:08;101765.56;;;16.06;38.91
46690;BME280;32423;45.398;10.874;2024-02-21T09:14:00;101771.38;;;15.96;40.58
46690;BME280;32423;45.398;10.874;2024-02-21T09:16:52;101764.34;;;15.52;41.72
46690;BME280;32423;45.398;10.874;2024-02-21T09:19:45;101765.28;;;15.82;41.97
46690;BME280;32423;45.398;10.874;2024-02-21T09:22:37;101758.03;;;15.77;42.41
46690;BME280;32423;45.398;10.874;2024-02-21T09:25:29;101771.09;;;15.80;42.54
46690;BME280;32423;45.398;10.874;2024-02-21T09:28:21;101762.34;;;16.04;42.88
46690;BME280;32423;45.398;10.874;2024-02-21T09:31:13;101771.56;;;16.00;42.97
46690;BME280;32423;45.398;10.874;2024-02-21T09:34:05;101769.50;;;15.71;43.17
46690;BME280;32423;45.398;10.874;2024-02-21T09:36:57;101757.84;;;15.91;42.97
46690;BME280;32423;45.398;10.874;2024-02-21T09:39:49;101752.69;;;16.45;41.62
46690;BME280;32423;45.398;10.874;2024-02-21T09:42:41;101751.72;;;16.41;41.85
46690;BME280;32423;45.398;10.874;2024-02-21T09:45:31;101764.59;;;16.95;40.67
46690;BME280;32423;45.398;10.874;2024-02-21T09:51:21;101760.59;;;16.84;39.50
46690;BME280;32423;45.398;10.874;2024-02-21T09:54:14;101761.25;;;17.73;38.35
46690;BME280;32423;45.398;10.874;2024-02-21T09:57:03;101759.25;;;18.27;36.99
46690;BME280;32423;45.398;10.874;2024-02-21T09:59:55;101761.94;;;18.60;36.47
46690;BME280;32423;45.398;10.874;2024-02-21T10:02:45;101759.63;;;17.92;37.43
46690;BME280;32423;45.398;10.874;2024-02-21T10:05:37;101759.91;;;17.58;37.87
46690;BME280;32423;45.398;10.874;2024-02-21T10:08:29;101752.50;;;18.36;36.99
46690;BME280;32423;45.398;10.874;2024-02-21T10:11:27;101758.53;;;18.06;38.45
46690;BME280;32423;45.398;10.874;2024-02-21T10:14:19;101742.88;;;17.02;41.03
46690;BME280;32423;45.398;10.874;2024-02-21T10:17:14;101745.06;;;20.05;36.26
46690;BME280;32423;45.398;10.874;2024-02-21T10:20:09;101758.50;;;25.79;26.71
46690;BME280;32423;45.398;10.874;2024-02-21T10:23:03;101748.06;;;24.86;27.86
46690;BME280;32423;45.398;10.874;2024-02-21T10:26:04;101760.81;;;24.39;27.68
46690;BME280;32423;45.398;10.874;2024-02-21T10:28:55;101768.19;;;26.70;25.66
46690;BME280;32423;45.398;10.874;2024-02-21T10:31:47;101759.53;;;24.74;27.94
46690;BME280;32423;45.398;10.874;2024-02-21T10:34:40;101756.47;;;22.82;29.75
46690;BME280;32423;45.398;10.874;2024-02-21T10:37:32;101760.66;;;25.24;27.50
46690;BME280;32423;45.398;10.874;2024-02-21T10:40:27;101767.41;;;26.41;25.58
46690;BME280;32423;45.398;10.874;2024-02-21T10:43:20;101753.09;;;22.01;31.85
46690;BME280;32423;45.398;10.874;2024-02-21T10:46:07;101753.13;;;19.98;35.33
46690;BME280;32423;45.398;10.874;2024-02-21T10:49:02;101752.88;;;18.96;37.85
46690;BME280;32423;45.398;10.874;2024-02-21T10:51:55;101752.47;;;18.24;39.53
46690;BME280;32423;45.398;10.874;2024-02-21T10:55:03;101739.63;;;17.83;40.24
46690;BME280;32423;45.398;10.874;2024-02-21T10:57:56;101739.34;;;17.64;41.21
46690;BME280;32423;45.398;10.874;2024-02-21T11:00:48;101734.53;;;17.61;41.79
46690;BME280;32423;45.398;10.874;2024-02-21T11:03:40;101731.44;;;17.42;42.38
46690;BME280;32423;45.398;10.874;2024-02-21T11:06:33;101720.44;;;17.42;42.35
46690;BME280;32423;45.398;10.874;2024-02-21T11:09:33;101715.94;;;17.17;43.16
46690;BME280;32423;45.398;10.874;2024-02-21T11:12:24;101703.94;;;17.21;43.44
46690;BME280;32423;45.398;10.874;2024-02-21T11:15:16;101690.25;;;17.13;43.63
46690;BME280;32423;45.398;10.874;2024-02-21T11:18:06;101684.97;;;17.07;44.16
46690;BME280;32423;45.398;10.874;2024-02-21T11:20:58;101687.06;;;17.10;44.30
46690;BME280;32423;45.398;10.874;2024-02-21T11:23:59;101682.28;;;17.20;44.55
46690;BME280;32423;45.398;10.874;2024-02-21T11:26:51;101683.34;;;17.27;44.99
46690;BME280;32423;45.398;10.874;2024-02-21T11:29:47;101666.78;;;17.36;45.22
46690;BME280;32423;45.398;10.874;2024-02-21T11:32:38;101663.94;;;17.44;44.69
46690;BME280;32423;45.398;10.874;2024-02-21T11:35:30;101658.66;;;17.39;45.27
46690;BME280;32423;45.398;10.874;2024-02-21T11:38:22;101653.41;;;17.46;45.33
46690;BME280;32423;45.398;10.874;2024-02-21T11:41:14;101655.31;;;17.34;45.69
46690;BME280;32423;45.398;10.874;2024-02-21T11:44:06;101658.78;;;17.43;45.66
46690;BME280;32423;45.398;10.874;2024-02-21T11:46:58;101655.56;;;17.41;46.25
46690;BME280;32423;45.398;10.874;2024-02-21T11:49:50;101644.63;;;17.32;46.46
46690;BME280;32423;45.398;10.874;2024-02-21T11:52:43;101636.34;;;17.53;46.34
46690;BME280;32423;45.398;10.874;2024-02-21T11:55:40;101635.69;;;17.56;45.59
46690;BME280;32423;45.398;10.874;2024-02-21T11:58:32;101628.88;;;17.62;45.59
46690;BME280;32423;45.398;10.874;2024-02-21T12:01:24;101620.72;;;17.66;45.73
46690;BME280;32423;45.398;10.874;2024-02-21T12:04:16;101622.69;;;17.77;45.61
46690;BME280;32423;45.398;10.874;2024-02-21T12:07:08;101615.22;;;17.78;45.77
46690;BME280;32423;45.398;10.874;2024-02-21T12:10:03;101616.94;;;17.70;46.10
46690;BME280;32423;45.398;10.874;2024-02-21T12:13:09;101611.47;;;17.82;45.76
46690;BME280;32423;45.398;10.874;2024-02-21T12:16:01;101611.13;;;17.96;45.46
46690;BME280;32423;45.398;10.874;2024-02-21T12:18:53;101602.31;;;18.03;45.94
46690;BME280;32423;45.398;10.874;2024-02-21T12:21:47;101595.31;;;18.17;45.45
46690;BME280;32423;45.398;10.874;2024-02-21T12:24:39;101591.41;;;18.18;45.67
46690;BME280;32423;45.398;10.874;2024-02-21T12:27:36;101564.91;;;18.26;45.67
46690;BME280;32423;45.398;10.874;2024-02-21T12:30:28;101568.44;;;18.38;45.55
46690;BME280;32423;45.398;10.874;2024-02-21T12:33:17;101567.19;;;18.24;46.11
46690;BME280;32423;45.398;10.874;2024-02-21T12:36:09;101562.81;;;18.35;45.81
46690;BME280;32423;45.398;10.874;2024-02-21T12:39:01;101557.78;;;18.37;46.02
46690;BME280;32423;45.398;10.874;2024-02-21T12:41:53;101556.75;;;18.29;46.12
46690;BME280;32423;45.398;10.874;2024-02-21T12:44:45;101552.69;;;18.39;46.08
46690;BME280;32423;45.398;10.874;2024-02-21T12:47:37;101550.84;;;18.55;45.73
46690;BME280;32423;45.398;10.874;2024-02-21T12:50:27;101533.88;;;18.41;45.29
46690;BME280;32423;45.398;10.874;2024-02-21T12:53:20;101540.53;;;18.52;44.96
46690;BME280;32423;45.398;10.874;2024-02-21T12:56:12;101543.50;;;18.59;44.30
46690;BME280;32423;45.398;10.874;2024-02-21T12:59:04;101528.78;;;18.67;44.26
46690;BME280;32423;45.398;10.874;2024-02-21T13:01:56;101532.22;;;18.64;44.05
46690;BME280;32423;45.398;10.874;2024-02-21T13:04:48;101529.03;;;18.62;43.61
46690;BME280;32423;45.398;10.874;2024-02-21T13:07:40;101512.75;;;18.57;42.22
46690;BME280;32423;45.398;10.874;2024-02-21T13:10:32;101507.25;;;18.57;41.62
46690;BME280;32423;45.398;10.874;2024-02-21T13:13:24;101509.59;;;18.71;41.23
46690;BME280;32423;45.398;10.874;2024-02-21T13:16:14;101502.53;;;18.58;41.06
46690;BME280;32423;45.398;10.874;2024-02-21T13:19:06;101492.97;;;18.67;41.52
46690;BME280;32423;45.398;10.874;2024-02-21T13:21:58;101498.31;;;18.76;42.14
46690;BME280;32423;45.398;10.874;2024-02-21T13:24:51;101480.56;;;18.73;42.39
46690;BME280;32423;45.398;10.874;2024-02-21T13:27:43;101478.19;;;18.88;42.60
46690;BME280;32423;45.398;10.874;2024-02-21T13:30:35;101469.72;;;18.80;42.58
46690;BME280;32423;45.398;10.874;2024-02-21T13:33:27;101461.06;;;18.66;42.04
46690;BME280;32423;45.398;10.874;2024-02-21T13:36:19;101450.00;;;18.78;41.68
46690;BME280;32423;45.398;10.874;2024-02-21T13:39:11;101447.66;;;18.80;41.17
46690;BME280;32423;45.398;10.874;2024-02-21T13:42:02;101440.66;;;18.55;41.01
46690;BME280;32423;45.398;10.874;2024-02-21T13:44:54;101450.31;;;18.49;40.43
46690;BME280;32423;45.398;10.874;2024-02-21T13:47:46;101439.63;;;18.60;40.80
46690;BME280;32423;45.398;10.874;2024-02-21T13:50:38;101432.53;;;18.74;41.48
46690;BME280;32423;45.398;10.874;2024-02-21T13:53:32;101429.63;;;18.83;40.67
46690;BME280;32423;45.398;10.874;2024-02-21T13:56:22;101431.47;;;18.63;40.38
46690;BME280;32423;45.398;10.874;2024-02-21T13:59:14;101436.53;;;18.61;40.58
46690;BME280;32423;45.398;10.874;2024-02-21T14:02:06;101425.09;;;18.47;40.37
46690;BME280;32423;45.398;10.874;2024-02-21T14:04:58;101423.00;;;18.56;40.21
46690;BME280;32423;45.398;10.874;2024-02-21T14:07:50;101413.13;;;18.55;40.32
46690;BME280;32423;45.398;10.874;2024-02-21T14:10:43;101408.50;;;18.59;39.82
46690;BME280;32423;45.398;10.874;2024-02-21T14:13:35;101410.66;;;18.66;40.42
46690;BME280;32423;45.398;10.874;2024-02-21T14:16:27;101408.91;;;18.73;40.80
46690;BME280;32423;45.398;10.874;2024-02-21T14:19:16;101403.13;;;18.51;40.48
46690;BME280;32423;45.398;10.874;2024-02-21T14:22:08;101400.09;;;18.40;41.17
46690;BME280;32423;45.398;10.874;2024-02-21T14:25:00;101396.81;;;18.62;41.16
46690;BME280;32423;45.398;10.874;2024-02-21T14:27:52;101398.56;;;18.55;40.42
46690;BME280;32423;45.398;10.874;2024-02-21T14:30:44;101391.56;;;18.45;41.07
46690;BME280;32423;45.398;10.874;2024-02-21T14:33:36;101391.53;;;18.29;41.34
46690;BME280;32423;45.398;10.874;2024-02-21T14:36:28;101388.47;;;18.47;41.15
46690;BME280;32423;45.398;10.874;2024-02-21T14:39:21;101386.06;;;18.45;41.08
46690;BME280;32423;45.398;10.874;2024-02-21T14:42:13;101377.00;;;18.45;41.47
46690;BME280;32423;45.398;10.874;2024-02-21T14:45:06;101374.78;;;18.50;42.41
46690;BME280;32423;45.398;10.874;2024-02-21T14:47:58;101376.19;;;18.28;42.22
46690;BME280;32423;45.398;10.874;2024-02-21T14:50:50;101366.44;;;18.19;41.61
46690;BME280;32423;45.398;10.874;2024-02-21T14:53:42;101362.03;;;18.30;41.87
46690;BME280;32423;45.398;10.874;2024-02-21T14:56:37;101362.41;;;18.28;41.81
46690;BME280;32423;45.398;10.874;2024-02-21T14:59:29;101361.84;;;18.23;41.90
46690;BME280;32423;45.398;10.874;2024-02-21T15:02:18;101349.94;;;18.19;42.03
46690;BME280;32423;45.398;10.874;2024-02-21T15:05:07;101342.59;;;18.23;41.67
46690;BME280;32423;45.398;10.874;2024-02-21T15:08:07;101335.81;;;18.20;41.39
46690;BME280;32423;45.398;10.874;2024-02-21T15:11:04;101330.91;;;18.14;41.59
46690;BME280;32423;45.398;10.874;2024-02-21T15:13:57;101327.81;;;18.15;42.35
46690;BME280;32423;45.398;10.874;2024-02-21T15:16:49;101336.47;;;18.02;42.37